createdAt,value
2019-02-28T00:01:52.619Z,57.47
2019-02-28T00:04:21.971Z,60.07
2019-02-28T00:06:51.409Z,57.20
2019-02-28T00:09:20.790Z,56.07
2019-02-28T00:11:50.379Z,57.47
2019-02-28T00:14:19.921Z,62.00
2019-02-28T00:16:49.483Z,59.13
2019-02-28T00:19:21.046Z,62.90
2019-02-28T00:21:50.172Z,63.87
2019-02-28T00:24:21.355Z,66.10
2019-02-28T00:26:52.606Z,70.37
2019-02-28T00:29:22.327Z,78.87
2019-02-28T00:31:51.660Z,66.80
2019-02-28T00:34:22.178Z,63.33
2019-02-28T00:36:53.410Z,70.33
2019-02-28T00:39:23.466Z,66.13
2019-02-28T00:41:54.034Z,72.53
2019-02-28T00:44:23.560Z,74.67
2019-02-28T00:46:52.911Z,67.53
2019-02-28T00:49:24.463Z,71.40
2019-02-28T00:51:56.486Z,67.40
2019-02-28T00:54:25.850Z,76.07
2019-02-28T00:56:56.526Z,74.47
2019-02-28T00:59:26.829Z,72.73
2019-02-28T01:01:57.338Z,68.67
2019-02-28T01:04:30.017Z,67.50
2019-02-28T01:06:59.709Z,82.90
2019-02-28T01:09:31.007Z,80.17
2019-02-28T01:12:00.939Z,75.43
2019-02-28T01:14:32.371Z,75.97
2019-02-28T01:17:03.627Z,79.43
2019-02-28T01:19:35.010Z,75.73
2019-02-28T01:22:04.407Z,80.30
2019-02-28T01:24:34.876Z,70.17
2019-02-28T01:27:04.865Z,77.07
2019-02-28T01:29:35.672Z,72.23
2019-02-28T01:32:05.509Z,71.17
2019-02-28T01:34:35.260Z,73.53
2019-02-28T01:37:04.620Z,71.77
2019-02-28T01:39:33.997Z,68.93
2019-02-28T01:42:03.471Z,59.27
2019-02-28T01:44:35.790Z,66.47
2019-02-28T01:47:05.134Z,68.33
2019-02-28T01:49:34.706Z,70.10
2019-02-28T01:52:09.820Z,70.73
2019-02-28T01:54:36.529Z,77.33
2019-02-28T01:57:08.925Z,75.47
2019-02-28T01:59:37.201Z,78.23
2019-02-28T02:02:07.039Z,72.40
2019-02-28T02:04:36.722Z,81.07
2019-02-28T02:07:06.186Z,74.27
2019-02-28T02:09:35.620Z,72.67
2019-02-28T02:12:05.037Z,81.67
2019-02-28T02:14:34.504Z,71.50
2019-02-28T02:17:05.903Z,73.40
2019-02-28T02:19:35.403Z,81.40
2019-02-28T02:22:09.129Z,76.00
2019-02-28T02:24:36.157Z,79.87
2019-02-28T02:27:05.851Z,79.03
2019-02-28T02:29:36.301Z,76.97
2019-02-28T02:32:06.519Z,83.83
2019-02-28T02:34:35.964Z,80.87
2019-02-28T02:37:05.439Z,82.30
2019-02-28T02:39:36.088Z,78.10
2019-02-28T02:42:10.050Z,82.27
2019-02-28T02:44:38.289Z,85.03
2019-02-28T02:47:07.771Z,75.83
2019-02-28T02:49:37.118Z,81.27
2019-02-28T02:52:06.586Z,85.93
2019-02-28T02:54:36.143Z,85.20
2019-02-28T02:57:05.589Z,86.80
2019-02-28T02:59:38.907Z,90.53
2019-02-28T03:02:08.155Z,93.83
2019-02-28T03:04:39.233Z,94.20
2019-02-28T03:07:11.656Z,92.33
2019-02-28T03:09:43.353Z,98.60
2019-02-28T03:12:13.632Z,99.30
2019-02-28T03:14:44.252Z,95.73
2019-02-28T03:17:13.750Z,97.17
2019-02-28T03:19:44.503Z,101.67
2019-02-28T03:22:15.374Z,100.90
2019-02-28T03:24:50.646Z,93.57
2019-02-28T03:27:19.047Z,105.13
2019-02-28T03:29:48.299Z,108.90
2019-02-28T03:32:17.749Z,99.63
2019-02-28T03:34:55.306Z,108.00
2019-02-28T03:37:18.530Z,112.80
2019-02-28T03:39:48.092Z,105.97
2019-02-28T03:42:18.833Z,106.00
2019-02-28T03:44:49.408Z,110.57
2019-02-28T03:47:22.774Z,100.97
2019-02-28T03:49:50.361Z,104.77
2019-02-28T03:52:21.269Z,110.90
2019-02-28T03:54:50.727Z,107.30
2019-02-28T03:57:20.186Z,99.73
2019-02-28T03:59:55.429Z,105.43
2019-02-28T04:02:22.955Z,105.63
2019-02-28T04:04:52.615Z,106.60
2019-02-28T04:07:24.146Z,114.63
2019-02-28T04:09:53.609Z,106.40
2019-02-28T04:12:23.278Z,111.03
2019-02-28T04:14:52.993Z,112.27
2019-02-28T04:17:26.296Z,103.23
2019-02-28T04:20:00.101Z,108.50
2019-02-28T04:22:27.530Z,111.43
2019-02-28T04:24:57.077Z,121.07
2019-02-28T04:27:28.501Z,101.83
2019-02-28T04:29:57.937Z,107.07
2019-02-28T04:32:27.952Z,112.03
2019-02-28T04:34:57.555Z,111.03
2019-02-28T04:37:28.570Z,107.40
2019-02-28T04:39:57.998Z,112.07
2019-02-28T04:42:27.583Z,110.13
2019-02-28T04:44:57.120Z,106.27
2019-02-28T04:47:26.645Z,104.30
2019-02-28T04:49:57.723Z,102.70
2019-02-28T04:52:28.767Z,103.90
2019-02-28T04:55:02.840Z,109.73
2019-02-28T04:57:31.091Z,110.87
2019-02-28T05:00:01.610Z,103.17
2019-02-28T05:02:31.095Z,99.97
2019-02-28T05:05:19.773Z,106.63
2019-02-28T05:07:52.366Z,108.53
2019-02-28T05:10:23.000Z,101.80
2019-02-28T05:12:52.587Z,109.43
2019-02-28T05:15:22.058Z,101.77
2019-02-28T05:17:53.111Z,104.20
2019-02-28T05:20:24.444Z,105.80
2019-02-28T05:22:53.935Z,106.93
2019-02-28T05:25:23.326Z,112.00
2019-02-28T05:27:53.882Z,106.50
2019-02-28T05:30:24.980Z,109.63
2019-02-28T05:32:54.411Z,105.70
2019-02-28T05:35:26.615Z,110.57
2019-02-28T05:37:56.495Z,115.57
2019-02-28T05:40:27.447Z,119.53
2019-02-28T05:42:58.512Z,108.63
2019-02-28T05:45:28.036Z,110.63
2019-02-28T05:47:57.466Z,109.53
2019-02-28T05:50:27.028Z,110.80
2019-02-28T05:52:56.512Z,105.40
2019-02-28T05:55:25.967Z,106.63
2019-02-28T05:57:55.423Z,114.60
2019-02-28T06:00:25.970Z,114.23
2019-02-28T06:02:58.081Z,112.13
2019-02-28T06:05:27.083Z,116.73
2019-02-28T06:07:56.704Z,123.73
2019-02-28T06:10:26.746Z,126.53
2019-02-28T06:12:57.280Z,118.73
2019-02-28T06:15:29.037Z,123.07
2019-02-28T06:17:58.991Z,121.93
2019-02-28T06:20:29.665Z,126.10
2019-02-28T06:22:59.064Z,120.30
2019-02-28T06:25:28.823Z,125.97
2019-02-28T06:27:58.395Z,133.87
2019-02-28T06:30:28.010Z,118.37
2019-02-28T06:32:59.092Z,117.23
2019-02-28T06:35:28.656Z,127.20
2019-02-28T06:38:01.189Z,123.87
2019-02-28T06:40:33.132Z,118.30
2019-02-28T06:43:01.720Z,126.77
2019-02-28T06:45:31.305Z,121.03
2019-02-28T06:48:00.882Z,123.73
2019-02-28T06:50:30.350Z,112.87
2019-02-28T06:52:59.958Z,112.23
2019-02-28T06:55:29.469Z,121.00
2019-02-28T06:57:59.981Z,115.77
2019-02-28T07:00:30.835Z,116.37
2019-02-28T07:03:03.288Z,111.57
2019-02-28T07:05:31.689Z,111.40
2019-02-28T07:08:02.875Z,113.43
2019-02-28T07:10:32.397Z,112.40
2019-02-28T07:13:04.538Z,117.63
2019-02-28T07:15:34.145Z,116.30
2019-02-28T07:18:04.847Z,111.20
2019-02-28T07:20:36.133Z,121.83
2019-02-28T07:23:05.973Z,114.73
2019-02-28T07:25:35.517Z,115.37
2019-02-28T07:28:05.030Z,112.87
2019-02-28T07:30:34.454Z,114.30
2019-02-28T07:33:09.528Z,127.33
2019-02-28T07:35:36.816Z,111.67
2019-02-28T07:38:06.349Z,112.77
2019-02-28T07:40:37.704Z,112.07
2019-02-28T07:43:12.037Z,117.60
2019-02-28T07:45:40.862Z,120.90
2019-02-28T07:48:10.332Z,106.77
2019-02-28T07:50:39.824Z,109.87
2019-02-28T07:53:09.845Z,117.70
2019-02-28T07:55:39.343Z,111.73
2019-02-28T07:58:08.977Z,113.80
2019-02-28T08:00:38.640Z,107.37
2019-02-28T08:03:11.289Z,105.57
2019-02-28T08:05:40.368Z,107.57
2019-02-28T08:08:09.878Z,107.50
2019-02-28T08:10:40.753Z,111.17
2019-02-28T08:13:10.458Z,99.87
2019-02-28T08:15:39.975Z,109.53
2019-02-28T08:18:09.441Z,98.43
2019-02-28T08:20:38.914Z,98.93
2019-02-28T08:23:09.504Z,105.20
2019-02-28T08:25:39.707Z,106.40
2019-02-28T08:28:10.077Z,100.90
2019-02-28T08:30:40.810Z,107.97
2019-02-28T08:33:10.311Z,97.87
2019-02-28T08:35:40.097Z,99.90
2019-02-28T08:38:10.243Z,101.97
2019-02-28T08:40:39.698Z,99.80
2019-02-28T08:43:10.485Z,104.93
2019-02-28T08:45:41.377Z,105.17
2019-02-28T08:48:12.649Z,105.40
2019-02-28T08:50:43.263Z,103.47
2019-02-28T08:53:15.545Z,100.67
2019-02-28T08:55:44.994Z,101.20
2019-02-28T08:58:14.504Z,103.70
2019-02-28T09:00:44.207Z,97.70
2019-02-28T09:03:14.241Z,99.80
2019-02-28T09:05:43.736Z,95.37
2019-02-28T09:08:13.399Z,100.93
2019-02-28T09:10:43.648Z,102.70
2019-02-28T09:13:14.608Z,100.23
2019-02-28T09:15:44.498Z,96.37
2019-02-28T09:18:13.958Z,61.77
2019-02-28T09:20:45.278Z,92.33
2019-02-28T09:23:14.943Z,79.73
2019-02-28T09:25:44.459Z,90.23
2019-02-28T09:28:15.011Z,77.93
2019-02-28T09:30:44.420Z,76.77
2019-02-28T09:33:13.885Z,70.60
2019-02-28T09:35:46.344Z,75.83
2019-02-28T09:38:16.353Z,75.97
2019-02-28T09:40:45.957Z,73.00
2019-02-28T09:43:16.699Z,70.10
2019-02-28T09:45:47.288Z,75.50
2019-02-28T09:48:16.852Z,81.03
2019-02-28T09:50:46.729Z,68.47
2019-02-28T09:53:16.762Z,73.17
2019-02-28T09:55:46.413Z,73.10
2019-02-28T09:58:15.860Z,63.07
2019-02-28T10:00:46.543Z,66.87
2019-02-28T10:03:19.608Z,61.33
2019-02-28T10:05:49.120Z,69.27
2019-02-28T10:08:18.715Z,68.20
2019-02-28T10:10:52.483Z,62.13
2019-02-28T10:13:21.472Z,63.03
2019-02-28T10:15:52.717Z,68.10
2019-02-28T10:18:21.890Z,72.27
2019-02-28T10:20:51.451Z,71.83
2019-02-28T10:23:21.517Z,72.27
2019-02-28T10:25:51.644Z,75.73
2019-02-28T10:28:21.123Z,75.33
2019-02-28T10:30:50.893Z,72.30
2019-02-28T10:33:21.970Z,63.33
2019-02-28T10:35:51.698Z,65.53
2019-02-28T10:38:21.210Z,67.83
2019-02-28T10:40:52.367Z,79.57
2019-02-28T10:43:24.818Z,70.80
2019-02-28T10:45:56.972Z,73.33
2019-02-28T10:48:26.461Z,74.27
2019-02-28T10:50:57.548Z,80.20
2019-02-28T10:53:29.564Z,89.27
2019-02-28T10:55:59.213Z,79.20
2019-02-28T10:58:28.668Z,72.60
2019-02-28T11:00:58.304Z,75.27
2019-02-28T11:03:31.768Z,86.33
2019-02-28T11:06:00.486Z,88.70
2019-02-28T11:08:30.040Z,86.90
2019-02-28T11:11:01.192Z,87.60
2019-02-28T11:13:32.190Z,84.77
2019-02-28T11:16:02.872Z,71.87
2019-02-28T11:18:33.477Z,76.43
2019-02-28T11:21:02.249Z,62.47
2019-02-28T11:23:31.092Z,39.43
2019-02-28T11:26:02.425Z,46.40
2019-02-28T11:28:31.958Z,57.07
2019-02-28T11:31:01.488Z,58.97
2019-02-28T11:33:31.074Z,35.23
2019-02-28T11:36:00.752Z,51.60
2019-02-28T11:38:30.398Z,54.33
2019-02-28T11:41:01.084Z,46.00
2019-02-28T11:43:37.558Z,50.53
2019-02-28T11:46:04.917Z,49.17
2019-02-28T11:48:34.483Z,36.40
2019-02-28T11:51:03.972Z,44.73
2019-02-28T11:53:39.246Z,43.57
2019-02-28T11:56:05.074Z,38.77
2019-02-28T11:58:34.525Z,34.70
2019-02-28T12:01:10.031Z,42.27
2019-02-28T12:03:36.597Z,44.20
2019-02-28T12:06:06.884Z,35.17
2019-02-28T12:08:36.786Z,38.90
2019-02-28T12:11:06.399Z,39.80
2019-02-28T12:13:35.935Z,35.73
2019-02-28T12:16:05.673Z,41.63
2019-02-28T12:18:39.750Z,40.67
2019-02-28T12:21:06.899Z,41.80
2019-02-28T12:23:36.401Z,44.43
2019-02-28T12:26:05.838Z,35.03
2019-02-28T12:28:38.226Z,35.20
2019-02-28T12:31:08.093Z,35.23
2019-02-28T12:33:37.620Z,37.27
2019-02-28T12:36:07.112Z,31.63
2019-02-28T12:38:37.940Z,32.13
2019-02-28T12:41:07.408Z,37.87
2019-02-28T12:43:40.591Z,30.05
2019-02-28T12:46:09.697Z,34.60
2019-02-28T12:48:39.269Z,34.67
2019-02-28T12:51:08.727Z,35.00
2019-02-28T12:53:38.276Z,36.17
2019-02-28T12:56:11.219Z,35.50
2019-02-28T12:58:41.742Z,36.00
2019-02-28T13:01:11.620Z,36.60
2019-02-28T13:03:41.053Z,34.10
2019-02-28T13:06:11.661Z,33.97
2019-02-28T13:08:41.727Z,33.07
2019-02-28T13:11:11.939Z,21.47
2019-02-28T13:13:42.597Z,35.17
2019-02-28T13:16:12.163Z,32.93
2019-02-28T13:18:43.653Z,28.23
2019-02-28T13:21:13.302Z,29.83
2019-02-28T13:23:43.261Z,29.17
2019-02-28T13:26:12.849Z,31.00
2019-02-28T13:28:42.489Z,28.20
2019-02-28T13:31:12.181Z,31.13
2019-02-28T13:33:42.242Z,36.13
2019-02-28T13:36:12.987Z,39.03
2019-02-28T13:38:43.761Z,29.70
2019-02-28T13:41:18.000Z,26.43
2019-02-28T13:43:44.967Z,31.43
2019-02-28T13:46:14.486Z,24.00
2019-02-28T13:48:43.876Z,23.90
2019-02-28T13:51:13.533Z,23.43
2019-02-28T13:53:43.081Z,23.70
2019-02-28T13:56:12.626Z,27.10
2019-02-28T13:58:42.066Z,26.67
2019-02-28T14:01:11.909Z,25.33
2019-02-28T14:03:42.235Z,23.43
2019-02-28T14:06:18.704Z,27.27
2019-02-28T14:08:46.412Z,27.37
2019-02-28T14:11:17.372Z,27.60
2019-02-28T14:13:48.599Z,22.47
2019-02-28T14:16:18.097Z,28.20
2019-02-28T14:18:48.000Z,31.77
2019-02-28T14:21:17.574Z,28.00
2019-02-28T14:23:47.140Z,26.50
2019-02-28T14:26:16.622Z,25.03
2019-02-28T14:28:46.159Z,25.87
2019-02-28T14:31:17.022Z,22.83
2019-02-28T14:33:48.014Z,24.93
2019-02-28T14:36:17.732Z,23.87
2019-02-28T14:38:47.185Z,22.73
2019-02-28T14:41:18.228Z,24.03
2019-02-28T14:43:47.833Z,23.13
2019-02-28T14:46:19.130Z,24.57
2019-02-28T14:48:48.674Z,29.57
2019-02-28T14:51:21.418Z,21.97
2019-02-28T14:53:52.561Z,26.93
2019-02-28T14:56:23.320Z,21.70
2019-02-28T14:58:54.469Z,27.87
2019-02-28T15:01:24.105Z,20.67
2019-02-28T15:03:53.558Z,19.13
2019-02-28T15:06:23.212Z,22.83
2019-02-28T15:08:54.592Z,17.67
2019-02-28T15:11:24.998Z,18.07
2019-02-28T15:13:54.440Z,22.30
2019-02-28T15:16:26.578Z,18.67
2019-02-28T15:18:55.490Z,21.37
2019-02-28T15:21:25.262Z,20.60
2019-02-28T15:23:55.929Z,19.50
2019-02-28T15:26:29.519Z,19.03
2019-02-28T15:28:57.996Z,21.47
2019-02-28T15:31:27.541Z,15.73
2019-02-28T15:33:57.071Z,23.43
2019-02-28T15:36:26.829Z,22.13
2019-02-28T15:38:56.297Z,23.43
2019-02-28T15:41:26.060Z,28.27
2019-02-28T15:43:55.852Z,28.90
2019-02-28T15:46:25.228Z,25.67
2019-02-28T15:48:54.662Z,23.27
2019-02-28T15:51:29.472Z,24.50
2019-02-28T15:53:57.299Z,25.17
2019-02-28T15:56:26.884Z,25.80
2019-02-28T15:58:57.894Z,27.37
2019-02-28T16:01:28.610Z,18.73
2019-02-28T16:03:57.198Z,20.73
2019-02-28T16:06:25.999Z,22.90
2019-02-28T16:08:55.393Z,25.13
2019-02-28T16:11:26.301Z,28.10
2019-02-28T16:13:57.485Z,27.67
2019-02-28T16:16:26.488Z,26.00
2019-02-28T16:18:55.253Z,28.60
2019-02-28T16:21:25.499Z,23.77
2019-02-28T16:23:54.320Z,24.10
2019-02-28T16:26:23.055Z,25.53
2019-02-28T16:28:51.895Z,27.47
2019-02-28T16:31:20.615Z,24.00
2019-02-28T16:33:49.455Z,27.17
2019-02-28T16:36:18.474Z,26.43
2019-02-28T16:38:47.287Z,25.53
2019-02-28T16:41:16.023Z,31.30
2019-02-28T16:43:44.966Z,31.37
2019-02-28T16:46:15.468Z,26.60
2019-02-28T16:48:45.325Z,30.90
2019-02-28T16:51:14.409Z,27.63
2019-02-28T16:53:43.443Z,25.70
2019-02-28T16:56:12.294Z,27.53
2019-02-28T16:58:41.151Z,24.20
2019-02-28T17:01:09.931Z,32.67
2019-02-28T17:03:41.751Z,31.67
2019-02-28T17:06:09.658Z,34.73
2019-02-28T17:09:03.219Z,29.73
2019-02-28T17:11:32.084Z,26.13
2019-02-28T17:14:10.245Z,26.10
2019-02-28T17:16:51.503Z,27.63
2019-02-28T17:19:20.458Z,34.93
2019-02-28T17:21:52.485Z,32.47
2019-02-28T17:24:20.609Z,30.07
2019-02-28T17:27:23.355Z,35.77
2019-02-28T17:30:00.554Z,28.30
2019-02-28T17:32:31.335Z,31.23
2019-02-28T17:35:00.347Z,32.23
2019-02-28T17:37:29.476Z,31.60
2019-02-28T17:39:58.641Z,37.43
2019-02-28T17:42:27.860Z,34.27
2019-02-28T17:45:16.461Z,31.23
2019-02-28T17:48:22.581Z,32.40
2019-02-28T17:51:28.507Z,29.70
2019-02-28T17:54:32.619Z,34.50
2019-02-28T17:57:26.133Z,42.70
2019-02-28T18:00:36.124Z,48.83
2019-02-28T18:03:44.956Z,49.50
2019-02-28T18:07:04.021Z,52.53
2019-02-28T18:10:36.143Z,51.93
2019-02-28T18:14:01.096Z,48.60
2019-02-28T18:17:01.350Z,43.10
2019-02-28T18:19:46.102Z,44.20
2019-02-28T18:22:51.990Z,52.23
2019-02-28T18:25:34.686Z,53.67
2019-02-28T18:28:36.484Z,51.07
2019-02-28T18:31:14.013Z,51.27
2019-02-28T18:33:55.782Z,42.10
2019-02-28T18:36:25.999Z,48.00
2019-02-28T18:38:55.158Z,45.90
2019-02-28T18:41:24.929Z,47.10
2019-02-28T18:44:14.454Z,46.17
2019-02-28T18:46:43.758Z,45.40
2019-02-28T18:49:13.268Z,48.90
2019-02-28T18:51:42.774Z,46.33
2019-02-28T18:54:11.978Z,51.13
2019-02-28T18:56:41.194Z,52.47
2019-02-28T18:59:10.465Z,49.17
2019-02-28T19:01:39.858Z,64.70
2019-02-28T19:04:09.091Z,68.00
2019-02-28T19:06:38.351Z,104.63
2019-02-28T19:09:26.688Z,122.83
2019-02-28T19:11:56.010Z,132.43
2019-02-28T19:14:25.181Z,142.27
2019-02-28T19:16:54.504Z,140.73
2019-02-28T19:19:23.791Z,140.67
2019-02-28T19:21:53.065Z,154.23
2019-02-28T19:24:22.328Z,158.30
2019-02-28T19:26:51.342Z,150.37
2019-02-28T19:29:20.472Z,158.47
2019-02-28T19:31:49.768Z,153.97
2019-02-28T19:34:18.990Z,150.07
2019-02-28T19:36:48.310Z,148.90
2019-02-28T19:39:17.701Z,139.60
2019-02-28T19:41:46.562Z,139.80
2019-02-28T19:44:15.413Z,137.50
2019-02-28T19:46:44.390Z,130.27
2019-02-28T19:49:13.315Z,138.67
2019-02-28T19:51:42.298Z,133.43
2019-02-28T19:54:11.530Z,139.70
2019-02-28T19:56:40.744Z,130.23
2019-02-28T19:59:09.845Z,131.37
2019-02-28T20:01:39.188Z,130.90
2019-02-28T20:04:08.417Z,128.83
2019-02-28T20:06:37.367Z,134.67
2019-02-28T20:09:07.693Z,123.57
2019-02-28T20:11:36.470Z,128.67
2019-02-28T20:14:05.306Z,125.00
2019-02-28T20:16:34.398Z,118.43
2019-02-28T20:19:03.364Z,115.47
2019-02-28T20:21:32.716Z,106.37
2019-02-28T20:24:01.896Z,108.33
2019-02-28T20:26:31.804Z,108.33
2019-02-28T20:29:00.772Z,110.63
2019-02-28T20:31:29.843Z,105.03
2019-02-28T20:33:58.619Z,111.70
2019-02-28T20:36:27.605Z,110.03
2019-02-28T20:38:56.644Z,114.30
2019-02-28T20:41:25.454Z,113.70
2019-02-28T20:43:54.180Z,106.57
2019-02-28T20:46:22.977Z,107.20
2019-02-28T20:48:51.807Z,111.77
2019-02-28T20:51:20.607Z,113.43
2019-02-28T20:53:49.590Z,116.90
2019-02-28T20:56:18.420Z,111.60
2019-02-28T20:58:47.255Z,111.07
2019-02-28T21:01:16.450Z,118.07
2019-02-28T21:03:45.194Z,118.87
2019-02-28T21:06:13.969Z,121.30
2019-02-28T21:08:42.859Z,129.63
2019-02-28T21:11:11.732Z,136.37
2019-02-28T21:13:40.561Z,133.87
2019-02-28T21:16:09.459Z,146.50
2019-02-28T21:18:38.321Z,154.90
2019-02-28T21:21:07.163Z,145.03
2019-02-28T21:23:36.006Z,151.23
2019-02-28T21:26:04.777Z,149.70
2019-02-28T21:28:33.776Z,140.30
2019-02-28T21:31:02.611Z,149.13
2019-02-28T21:33:31.340Z,164.00
2019-02-28T21:36:00.137Z,155.20
2019-02-28T21:38:29.030Z,141.23
2019-02-28T21:40:57.785Z,138.17
2019-02-28T21:43:26.572Z,136.43
2019-02-28T21:45:55.304Z,116.73
2019-02-28T21:48:24.131Z,103.37
2019-02-28T21:50:52.890Z,100.27
2019-02-28T21:53:21.790Z,103.43
2019-02-28T21:55:50.610Z,97.60
2019-02-28T21:58:19.366Z,96.70
2019-02-28T22:00:48.535Z,101.27
2019-02-28T22:03:17.302Z,102.80
2019-02-28T22:05:46.080Z,108.37
2019-02-28T22:08:14.940Z,91.93
2019-02-28T22:10:43.788Z,94.53
2019-02-28T22:13:12.533Z,97.47
2019-02-28T22:15:41.365Z,94.97
2019-02-28T22:18:10.185Z,96.23
2019-02-28T22:20:38.966Z,96.17
2019-02-28T22:23:07.961Z,93.70
2019-02-28T22:25:36.798Z,95.67
2019-02-28T22:28:05.637Z,96.93
2019-02-28T22:31:02.446Z,89.50
2019-02-28T22:33:42.164Z,84.20
2019-02-28T22:36:13.112Z,69.73
2019-02-28T22:38:41.947Z,64.67
2019-02-28T22:41:10.783Z,64.27
2019-02-28T22:43:39.881Z,62.60
2019-02-28T22:46:08.700Z,55.60
2019-02-28T22:48:37.434Z,63.93
2019-02-28T22:51:06.321Z,68.20
2019-02-28T22:53:35.123Z,82.80
2019-02-28T22:56:03.924Z,75.40
2019-02-28T22:58:32.709Z,82.37
2019-02-28T23:01:05.374Z,84.33
2019-02-28T23:03:34.365Z,73.27
2019-02-28T23:06:03.326Z,73.17
2019-02-28T23:08:32.174Z,70.77
2019-02-28T23:11:00.996Z,65.50
2019-02-28T23:13:29.890Z,69.80
2019-02-28T23:15:58.626Z,74.47
2019-02-28T23:18:27.443Z,80.20
2019-02-28T23:20:56.338Z,77.67
2019-02-28T23:23:25.049Z,64.57
2019-02-28T23:25:53.804Z,55.07
2019-02-28T23:28:33.151Z,60.80
2019-02-28T23:31:07.884Z,64.30
2019-02-28T23:33:36.660Z,55.23
2019-02-28T23:36:05.523Z,60.10
2019-02-28T23:38:34.345Z,56.70
2019-02-28T23:41:03.704Z,62.17
2019-02-28T23:43:32.503Z,52.63
2019-02-28T23:46:01.358Z,48.20
2019-02-28T23:48:30.120Z,54.17
2019-02-28T23:50:58.883Z,45.43
2019-02-28T23:53:27.645Z,49.47
2019-02-28T23:55:56.478Z,47.40
2019-02-28T23:58:25.285Z,52.47
